createdAt,value
2022-12-04T00:00:19.636Z,5.66
2022-12-04T00:03:04.504Z,5.72
2022-12-04T00:05:49.839Z,5.66
2022-12-04T00:08:34.638Z,5.64
2022-12-04T00:11:19.396Z,5.66
2022-12-04T00:14:07.283Z,5.66
2022-12-04T00:16:52.383Z,5.71
2022-12-04T00:19:37.139Z,5.72
2022-12-04T00:22:21.807Z,5.66
2022-12-04T00:25:06.644Z,5.57
2022-12-04T00:27:51.327Z,5.56
2022-12-04T00:30:35.914Z,5.62
2022-12-04T00:33:20.625Z,5.66
2022-12-04T00:36:05.433Z,5.71
2022-12-04T00:38:50.005Z,5.72
2022-12-04T00:41:34.835Z,5.72
2022-12-04T00:44:19.540Z,5.75
2022-12-04T00:47:04.249Z,5.67
2022-12-04T00:49:49.055Z,5.62
2022-12-04T00:52:33.794Z,5.61
2022-12-04T00:55:18.635Z,5.64
2022-12-04T00:58:03.373Z,5.67
2022-12-04T01:00:48.204Z,5.69
2022-12-04T01:03:33.028Z,5.69
2022-12-04T01:06:18.204Z,5.68
2022-12-04T01:09:02.863Z,5.72
2022-12-04T01:11:47.722Z,5.70
2022-12-04T01:14:32.545Z,5.73
2022-12-04T01:17:17.198Z,5.76
2022-12-04T01:20:01.948Z,5.72
2022-12-04T01:22:46.751Z,5.69
2022-12-04T01:25:31.459Z,5.72
2022-12-04T01:28:16.303Z,5.71
2022-12-04T01:31:00.938Z,5.66
2022-12-04T01:33:45.834Z,5.68
2022-12-04T01:36:30.562Z,5.72
2022-12-04T01:39:15.314Z,5.77
2022-12-04T01:42:00.027Z,5.81
2022-12-04T01:44:44.700Z,5.79
2022-12-04T01:47:29.393Z,5.76
2022-12-04T01:50:14.263Z,5.73
2022-12-04T01:52:58.947Z,5.73
2022-12-04T01:55:43.939Z,5.71
2022-12-04T01:58:28.602Z,5.71
2022-12-04T02:01:13.586Z,5.70
2022-12-04T02:03:58.366Z,5.68
2022-12-04T02:06:43.165Z,5.68
2022-12-04T02:09:27.836Z,5.68
2022-12-04T02:12:12.622Z,5.74
2022-12-04T02:14:57.446Z,5.72
2022-12-04T02:17:42.186Z,5.73
2022-12-04T02:20:27.002Z,5.75
2022-12-04T02:23:11.526Z,5.72
2022-12-04T02:25:56.461Z,5.71
2022-12-04T02:28:41.050Z,5.74
2022-12-04T02:31:26.138Z,5.73
2022-12-04T02:34:11.181Z,5.71
2022-12-04T02:36:55.880Z,5.68
2022-12-04T02:39:40.562Z,5.69
2022-12-04T02:42:25.302Z,5.69
2022-12-04T02:45:10.009Z,5.67
2022-12-04T02:47:54.894Z,5.71
2022-12-04T02:50:39.561Z,5.71
2022-12-04T02:53:24.414Z,5.69
2022-12-04T02:56:09.422Z,5.75
2022-12-04T02:58:54.090Z,5.75
2022-12-04T03:01:38.892Z,5.75
2022-12-04T03:04:23.994Z,5.76
2022-12-04T03:07:08.720Z,5.77
2022-12-04T03:09:53.731Z,5.82
2022-12-04T03:12:38.675Z,5.79
2022-12-04T03:15:23.607Z,5.85
2022-12-04T03:18:08.199Z,5.82
2022-12-04T03:20:53.255Z,5.87
2022-12-04T03:23:37.895Z,5.93
2022-12-04T03:26:22.777Z,5.96
2022-12-04T03:29:07.529Z,5.98
2022-12-04T03:31:52.210Z,5.91
2022-12-04T03:34:36.874Z,5.88
2022-12-04T03:37:21.555Z,5.93
2022-12-04T03:40:06.286Z,5.93
2022-12-04T03:42:50.946Z,5.88
2022-12-04T03:45:35.801Z,5.86
2022-12-04T03:48:23.214Z,5.89
2022-12-04T03:51:08.630Z,5.97
2022-12-04T03:53:53.209Z,5.95
2022-12-04T03:56:38.101Z,5.97
2022-12-04T03:59:22.728Z,5.97
2022-12-04T04:02:07.567Z,5.95
2022-12-04T04:04:52.727Z,5.97
2022-12-04T04:07:37.471Z,5.98
2022-12-04T04:10:22.184Z,5.98
2022-12-04T04:13:06.869Z,6.02
2022-12-04T04:15:51.651Z,6.08
2022-12-04T04:18:36.816Z,6.11
2022-12-04T04:21:21.625Z,6.16
2022-12-04T04:24:06.286Z,6.21
2022-12-04T04:26:51.012Z,6.23
2022-12-04T04:29:35.818Z,6.25
2022-12-04T04:32:20.574Z,6.28
2022-12-04T04:35:05.364Z,6.30
2022-12-04T04:37:50.051Z,6.27
2022-12-04T04:40:34.873Z,6.28
2022-12-04T04:43:19.583Z,6.26
2022-12-04T04:46:04.515Z,6.27
2022-12-04T04:48:49.191Z,6.25
2022-12-04T04:51:34.049Z,6.23
2022-12-04T04:54:18.671Z,6.22
2022-12-04T04:57:03.413Z,6.11
2022-12-04T04:59:48.178Z,6.09
2022-12-04T05:02:33.044Z,6.06
2022-12-04T05:05:17.926Z,6.08
2022-12-04T05:08:02.705Z,6.11
2022-12-04T05:10:47.918Z,6.11
2022-12-04T05:13:32.585Z,6.14
2022-12-04T05:16:17.499Z,6.10
2022-12-04T05:19:02.646Z,6.11
2022-12-04T05:21:47.361Z,6.20
2022-12-04T05:24:32.161Z,6.21
2022-12-04T05:27:16.909Z,6.25
2022-12-04T05:30:01.756Z,6.27
2022-12-04T05:32:46.432Z,6.31
2022-12-04T05:35:31.407Z,6.33
2022-12-04T05:38:16.007Z,6.31
2022-12-04T05:41:01.044Z,6.34
2022-12-04T05:43:45.804Z,6.32
2022-12-04T05:46:30.719Z,6.31
2022-12-04T05:49:15.413Z,6.32
2022-12-04T05:52:00.356Z,6.30
2022-12-04T05:54:45.027Z,6.24
2022-12-04T05:57:30.092Z,6.26
2022-12-04T06:00:15.055Z,6.33
2022-12-04T06:02:59.814Z,6.35
2022-12-04T06:05:45.176Z,6.37
2022-12-04T06:08:29.855Z,6.28
2022-12-04T06:11:14.504Z,6.29
2022-12-04T06:13:59.287Z,6.29
2022-12-04T06:16:44.040Z,6.33
2022-12-04T06:19:28.623Z,6.31
2022-12-04T06:22:13.422Z,6.34
2022-12-04T06:24:58.229Z,6.38
2022-12-04T06:27:42.874Z,6.42
2022-12-04T06:30:27.671Z,6.42
2022-12-04T06:33:12.559Z,6.41
2022-12-04T06:35:57.395Z,6.44
2022-12-04T06:38:42.130Z,6.44
2022-12-04T06:41:26.970Z,6.47
2022-12-04T06:44:11.592Z,6.44
2022-12-04T06:46:56.377Z,6.42
2022-12-04T06:49:41.145Z,6.36
2022-12-04T06:52:25.912Z,6.39
2022-12-04T06:55:10.778Z,6.32
2022-12-04T06:57:55.585Z,6.35
2022-12-04T07:00:40.309Z,6.33
2022-12-04T07:03:24.870Z,6.34
2022-12-04T07:06:09.671Z,6.42
2022-12-04T07:08:54.336Z,6.42
2022-12-04T07:11:39.132Z,6.46
2022-12-04T07:14:23.810Z,6.51
2022-12-04T07:17:08.611Z,6.55
2022-12-04T07:19:53.581Z,6.54
2022-12-04T07:22:38.929Z,6.45
2022-12-04T07:25:23.818Z,6.30
2022-12-04T07:28:08.654Z,6.26
2022-12-04T07:30:53.542Z,6.29
2022-12-04T07:33:38.300Z,6.28
2022-12-04T07:36:23.016Z,6.25
2022-12-04T07:39:07.730Z,6.28
2022-12-04T07:41:52.484Z,6.26
2022-12-04T07:44:37.185Z,6.18
2022-12-04T07:47:21.977Z,6.14
2022-12-04T07:50:06.654Z,6.14
2022-12-04T07:52:51.486Z,6.13
2022-12-04T07:55:36.205Z,6.09
2022-12-04T07:58:20.883Z,6.11
2022-12-04T08:01:05.742Z,6.17
2022-12-04T08:03:50.483Z,6.23
2022-12-04T08:06:35.241Z,6.29
2022-12-04T08:09:20.005Z,6.29
2022-12-04T08:12:04.771Z,6.36
2022-12-04T08:14:49.527Z,6.37
2022-12-04T08:17:34.376Z,6.31
2022-12-04T08:20:19.101Z,6.34
2022-12-04T08:23:03.874Z,6.34
2022-12-04T08:25:48.695Z,6.34
2022-12-04T08:28:33.348Z,6.45
2022-12-04T08:31:18.156Z,6.49
2022-12-04T08:34:02.869Z,6.51
2022-12-04T08:36:47.567Z,6.57
2022-12-04T08:39:32.283Z,6.60
2022-12-04T08:42:17.105Z,6.52
2022-12-04T08:45:01.777Z,6.54
2022-12-04T08:47:52.088Z,6.46
2022-12-04T08:50:37.588Z,6.34
2022-12-04T08:53:22.259Z,6.29
2022-12-04T08:56:07.057Z,6.28
2022-12-04T08:58:51.939Z,6.32
2022-12-04T09:01:36.846Z,6.44
2022-12-04T09:04:22.139Z,6.42
2022-12-04T09:07:06.753Z,6.49
2022-12-04T09:09:51.563Z,6.57
2022-12-04T09:12:36.175Z,6.71
2022-12-04T09:15:20.989Z,6.76
2022-12-04T09:18:05.821Z,6.81
2022-12-04T09:20:50.691Z,6.78
2022-12-04T09:23:35.438Z,6.83
2022-12-04T09:26:20.450Z,6.95
2022-12-04T09:29:06.235Z,6.93
2022-12-04T09:31:51.328Z,6.96
2022-12-04T09:34:36.205Z,7.02
2022-12-04T09:37:20.927Z,7.08
2022-12-04T09:40:05.786Z,7.20
2022-12-04T09:42:50.434Z,7.28
2022-12-04T09:45:35.241Z,7.27
2022-12-04T09:48:19.995Z,7.19
2022-12-04T09:51:04.826Z,7.05
2022-12-04T09:53:49.651Z,6.88
2022-12-04T09:56:34.422Z,6.74
2022-12-04T09:59:19.241Z,6.78
2022-12-04T10:02:04.020Z,6.76
2022-12-04T10:04:48.743Z,6.61
2022-12-04T10:07:33.489Z,6.68
2022-12-04T10:10:18.751Z,6.74
2022-12-04T10:13:03.437Z,6.79
2022-12-04T10:15:48.279Z,6.93
2022-12-04T10:18:33.044Z,7.16
2022-12-04T10:21:17.764Z,7.39
2022-12-04T10:24:02.659Z,7.63
2022-12-04T10:26:47.384Z,7.80
2022-12-04T10:29:32.465Z,7.97
2022-12-04T10:32:17.308Z,8.05
2022-12-04T10:35:02.178Z,8.11
2022-12-04T10:37:46.886Z,8.15
2022-12-04T10:40:31.671Z,8.22
2022-12-04T10:43:16.386Z,8.22
2022-12-04T10:46:01.147Z,8.25
2022-12-04T10:48:45.853Z,8.34
2022-12-04T10:51:30.532Z,8.40
2022-12-04T10:54:15.404Z,8.50
2022-12-04T10:57:00.457Z,8.66
2022-12-04T10:59:45.694Z,8.78
2022-12-04T11:02:30.513Z,8.91
2022-12-04T11:05:15.656Z,9.06
2022-12-04T11:08:00.482Z,9.25
2022-12-04T11:10:45.124Z,9.42
2022-12-04T11:13:29.938Z,9.56
2022-12-04T11:16:14.725Z,9.65
2022-12-04T11:18:59.508Z,9.16
2022-12-04T11:21:44.223Z,8.68
2022-12-04T11:24:28.914Z,8.34
2022-12-04T11:27:13.644Z,8.18
2022-12-04T11:29:58.806Z,7.99
2022-12-04T11:32:43.752Z,7.68
2022-12-04T11:35:28.737Z,7.66
2022-12-04T11:38:13.563Z,7.76
2022-12-04T11:40:58.352Z,7.84
2022-12-04T11:43:43.170Z,7.86
2022-12-04T11:46:27.878Z,7.88
2022-12-04T11:49:12.907Z,8.17
2022-12-04T11:51:57.697Z,8.40
2022-12-04T11:54:42.623Z,8.48
2022-12-04T11:57:27.222Z,8.39
2022-12-04T12:00:11.939Z,8.41
2022-12-04T12:02:56.646Z,8.52
2022-12-04T12:05:41.898Z,8.35
2022-12-04T12:08:26.751Z,8.41
2022-12-04T12:11:11.474Z,8.20
2022-12-04T12:13:56.207Z,8.22
2022-12-04T12:16:41.144Z,8.48
2022-12-04T12:19:26.041Z,8.72
2022-12-04T12:22:10.719Z,8.55
2022-12-04T12:24:55.829Z,8.88
2022-12-04T12:27:40.994Z,8.81
2022-12-04T12:30:25.728Z,8.78
2022-12-04T12:33:10.459Z,8.58
2022-12-04T12:35:55.161Z,8.51
2022-12-04T12:38:39.889Z,8.33
2022-12-04T12:41:24.703Z,8.22
2022-12-04T12:44:09.670Z,8.01
2022-12-04T12:46:54.376Z,7.94
2022-12-04T12:49:39.200Z,7.86
2022-12-04T12:52:23.879Z,7.92
2022-12-04T12:55:08.584Z,8.01
2022-12-04T12:57:53.249Z,8.11
2022-12-04T13:00:38.091Z,8.24
2022-12-04T13:03:22.983Z,8.44
2022-12-04T13:06:07.762Z,8.57
2022-12-04T13:08:52.532Z,8.80
2022-12-04T13:11:37.268Z,8.95
2022-12-04T13:14:22.066Z,9.05
2022-12-04T13:17:06.961Z,8.93
2022-12-04T13:19:52.308Z,8.95
2022-12-04T13:22:37.041Z,9.01
2022-12-04T13:25:21.893Z,8.94
2022-12-04T13:28:07.127Z,8.74
2022-12-04T13:30:52.014Z,8.44
2022-12-04T13:33:36.753Z,8.25
2022-12-04T13:36:21.498Z,7.99
2022-12-04T13:39:06.381Z,7.92
2022-12-04T13:41:51.026Z,7.76
2022-12-04T13:44:35.886Z,7.71
2022-12-04T13:47:20.605Z,7.62
2022-12-04T13:50:06.579Z,7.55
2022-12-04T13:52:51.667Z,7.62
2022-12-04T13:55:36.493Z,7.63
2022-12-04T13:58:21.214Z,7.64
2022-12-04T14:01:06.101Z,7.72
2022-12-04T14:03:51.198Z,7.81
2022-12-04T14:06:35.910Z,7.95
2022-12-04T14:09:20.536Z,8.13
2022-12-04T14:12:05.174Z,8.25
2022-12-04T14:14:49.978Z,8.41
2022-12-04T14:17:34.722Z,8.48
2022-12-04T14:20:19.455Z,8.51
2022-12-04T14:23:04.159Z,8.58
2022-12-04T14:25:48.824Z,8.63
2022-12-04T14:28:38.721Z,8.62
2022-12-04T14:31:27.041Z,8.61
2022-12-04T14:34:12.155Z,8.59
2022-12-04T14:36:56.938Z,8.43
2022-12-04T14:39:41.612Z,8.24
2022-12-04T14:42:26.632Z,8.19
2022-12-04T14:45:11.286Z,8.13
2022-12-04T14:47:56.082Z,8.02
2022-12-04T14:50:40.823Z,7.96
2022-12-04T14:53:25.578Z,7.80
2022-12-04T14:56:10.450Z,7.63
2022-12-04T14:58:55.207Z,7.46
2022-12-04T15:01:39.977Z,7.31
2022-12-04T15:04:24.830Z,7.08
2022-12-04T15:07:09.631Z,7.06
2022-12-04T15:09:54.323Z,6.90
2022-12-04T15:12:39.186Z,6.72
2022-12-04T15:15:24.023Z,6.63
2022-12-04T15:18:09.358Z,6.57
2022-12-04T15:20:54.233Z,6.62
2022-12-04T15:23:38.975Z,6.54
2022-12-04T15:26:23.775Z,6.54
2022-12-04T15:29:08.618Z,6.59
2022-12-04T15:31:53.450Z,6.57
2022-12-04T15:34:38.156Z,6.56
2022-12-04T15:37:22.900Z,6.55
2022-12-04T15:40:07.645Z,6.50
2022-12-04T15:42:52.455Z,6.36
2022-12-04T15:45:37.186Z,6.34
2022-12-04T15:48:22.035Z,6.32
2022-12-04T15:51:06.766Z,6.26
2022-12-04T15:53:51.564Z,6.25
2022-12-04T15:56:36.464Z,6.14
2022-12-04T15:59:21.194Z,6.13
2022-12-04T16:02:06.094Z,6.05
2022-12-04T16:04:51.155Z,6.04
2022-12-04T16:07:36.069Z,5.96
2022-12-04T16:10:20.732Z,5.95
2022-12-04T16:13:05.570Z,5.90
2022-12-04T16:15:50.366Z,5.89
2022-12-04T16:18:35.319Z,5.86
2022-12-04T16:21:20.092Z,5.85
2022-12-04T16:24:04.936Z,5.82
2022-12-04T16:26:49.755Z,5.84
2022-12-04T16:29:34.436Z,5.72
2022-12-04T16:32:19.385Z,5.73
2022-12-04T16:35:04.268Z,5.67
2022-12-04T16:37:49.182Z,5.62
2022-12-04T16:40:33.943Z,5.59
2022-12-04T16:43:18.572Z,5.38
2022-12-04T16:46:03.389Z,5.38
2022-12-04T16:48:47.947Z,5.38
2022-12-04T16:51:32.795Z,5.41
2022-12-04T16:54:17.518Z,5.35
2022-12-04T16:57:03.655Z,5.29
2022-12-04T16:59:48.387Z,5.30
2022-12-04T17:02:33.209Z,5.28
2022-12-04T17:05:17.866Z,5.33
2022-12-04T17:08:02.787Z,5.32
2022-12-04T17:10:47.835Z,5.32
2022-12-04T17:13:32.573Z,5.26
2022-12-04T17:16:19.808Z,5.34
2022-12-04T17:19:04.994Z,5.39
2022-12-04T17:21:49.743Z,5.29
2022-12-04T17:24:34.500Z,5.31
2022-12-04T17:27:19.184Z,5.31
2022-12-04T17:30:03.912Z,5.40
2022-12-04T17:32:48.653Z,5.51
2022-12-04T17:35:33.517Z,5.49
2022-12-04T17:38:18.096Z,5.49
2022-12-04T17:41:02.983Z,5.51
2022-12-04T17:43:47.734Z,5.40
2022-12-04T17:46:32.573Z,5.38
2022-12-04T17:49:17.161Z,5.35
2022-12-04T17:52:01.947Z,5.28
2022-12-04T17:54:46.616Z,5.17
2022-12-04T17:57:31.443Z,5.14
2022-12-04T18:00:16.188Z,5.11
2022-12-04T18:03:00.927Z,5.26
2022-12-04T18:05:45.708Z,5.38
2022-12-04T18:08:30.489Z,5.25
2022-12-04T18:11:15.253Z,5.30
2022-12-04T18:13:59.895Z,5.37
2022-12-04T18:16:44.793Z,5.45
2022-12-04T18:19:30.108Z,5.42
2022-12-04T18:22:14.950Z,5.31
2022-12-04T18:24:59.488Z,5.33
2022-12-04T18:27:44.290Z,5.35
2022-12-04T18:30:29.158Z,5.40
2022-12-04T18:33:18.862Z,5.48
2022-12-04T18:36:03.779Z,5.51
2022-12-04T18:38:48.665Z,5.42
2022-12-04T18:41:33.351Z,5.33
2022-12-04T18:44:18.348Z,5.21
2022-12-04T18:47:03.084Z,5.23
2022-12-04T18:49:47.905Z,5.25
2022-12-04T18:52:32.647Z,5.32
2022-12-04T18:55:17.580Z,5.24
2022-12-04T18:58:02.809Z,5.10
2022-12-04T19:00:48.601Z,5.07
2022-12-04T19:03:33.357Z,5.13
2022-12-04T19:06:18.211Z,5.08
2022-12-04T19:09:03.445Z,5.00
2022-12-04T19:11:48.355Z,5.00
2022-12-04T19:14:33.231Z,5.09
2022-12-04T19:17:17.902Z,5.20
2022-12-04T19:20:02.680Z,5.21
2022-12-04T19:22:47.551Z,5.25
2022-12-04T19:25:32.797Z,5.26
2022-12-04T19:28:17.465Z,5.26
2022-12-04T19:31:02.350Z,5.35
2022-12-04T19:33:47.302Z,5.36
2022-12-04T19:36:32.148Z,5.21
2022-12-04T19:39:16.900Z,5.20
2022-12-04T19:42:01.530Z,5.17
2022-12-04T19:44:49.129Z,4.99
2022-12-04T19:47:34.755Z,4.90
2022-12-04T19:50:19.400Z,4.87
2022-12-04T19:53:04.165Z,4.80
2022-12-04T19:55:48.927Z,4.78
2022-12-04T19:58:33.814Z,4.77
2022-12-04T20:01:18.738Z,4.94
2022-12-04T20:04:03.898Z,5.06
2022-12-04T20:06:48.475Z,5.12
2022-12-04T20:09:33.380Z,5.03
2022-12-04T20:12:18.135Z,4.98
2022-12-04T20:15:02.821Z,5.03
2022-12-04T20:17:47.680Z,5.07
2022-12-04T20:20:32.251Z,5.06
2022-12-04T20:23:17.160Z,5.02
2022-12-04T20:26:01.928Z,4.87
2022-12-04T20:28:46.719Z,4.80
2022-12-04T20:31:31.524Z,4.75
2022-12-04T20:34:16.283Z,4.62
2022-12-04T20:37:00.945Z,4.58
2022-12-04T20:39:45.777Z,4.74
2022-12-04T20:42:33.662Z,4.78
2022-12-04T20:45:18.710Z,4.72
2022-12-04T20:48:03.511Z,4.71
2022-12-04T20:50:48.195Z,4.84
2022-12-04T20:53:33.039Z,4.94
2022-12-04T20:56:17.707Z,4.95
2022-12-04T20:59:02.527Z,5.00
2022-12-04T21:01:47.429Z,4.92
2022-12-04T21:04:32.599Z,4.86
2022-12-04T21:07:17.454Z,4.84
2022-12-04T21:10:02.192Z,4.86
2022-12-04T21:12:47.108Z,4.81
2022-12-04T21:15:32.351Z,4.67
2022-12-04T21:18:17.562Z,4.46
2022-12-04T21:21:02.124Z,4.28
2022-12-04T21:23:46.905Z,4.20
2022-12-04T21:26:31.974Z,4.21
2022-12-04T21:29:17.189Z,4.16
2022-12-04T21:32:02.079Z,4.17
2022-12-04T21:34:46.798Z,4.17
2022-12-04T21:37:31.722Z,4.18
2022-12-04T21:40:16.508Z,4.12
2022-12-04T21:43:01.304Z,4.09
2022-12-04T21:45:45.954Z,4.39
2022-12-04T21:48:30.882Z,4.61
2022-12-04T21:51:39.861Z,4.71
2022-12-04T21:54:20.563Z,4.71
2022-12-04T21:57:05.405Z,4.75
2022-12-04T21:59:50.062Z,4.48
2022-12-04T22:02:34.809Z,4.17
2022-12-04T22:05:19.621Z,4.06
2022-12-04T22:08:04.612Z,3.95
2022-12-04T22:10:49.977Z,3.95
2022-12-04T22:13:34.617Z,3.98
2022-12-04T22:16:19.443Z,4.02
2022-12-04T22:19:04.191Z,3.94
2022-12-04T22:21:49.002Z,3.84
2022-12-04T22:24:33.839Z,3.64
2022-12-04T22:27:18.542Z,3.47
2022-12-04T22:30:04.381Z,3.45
2022-12-04T22:32:49.526Z,3.52
2022-12-04T22:35:34.302Z,3.61
2022-12-04T22:38:19.080Z,3.66
2022-12-04T22:41:03.857Z,3.84
2022-12-04T22:43:48.716Z,3.89
2022-12-04T22:46:33.688Z,3.95
2022-12-04T22:49:18.825Z,3.96
2022-12-04T22:52:03.681Z,3.97
2022-12-04T22:54:48.480Z,4.01
2022-12-04T22:57:33.271Z,4.05
2022-12-04T23:00:17.953Z,4.09
2022-12-04T23:03:02.828Z,4.07
2022-12-04T23:05:47.558Z,4.08
2022-12-04T23:08:32.341Z,4.13
2022-12-04T23:11:17.308Z,4.23
2022-12-04T23:14:01.999Z,4.26
2022-12-04T23:16:46.802Z,4.13
2022-12-04T23:19:31.531Z,4.07
2022-12-04T23:22:16.346Z,3.99
2022-12-04T23:25:01.028Z,3.88
2022-12-04T23:27:45.798Z,3.78
2022-12-04T23:30:32.703Z,3.74
2022-12-04T23:33:19.810Z,3.72
2022-12-04T23:36:04.794Z,3.64
2022-12-04T23:38:49.406Z,3.59
2022-12-04T23:41:34.186Z,3.56
2022-12-04T23:44:18.969Z,3.60
2022-12-04T23:47:03.847Z,3.71
2022-12-04T23:49:49.015Z,3.73
2022-12-04T23:52:33.690Z,3.87
2022-12-04T23:55:18.497Z,3.92
2022-12-04T23:58:03.292Z,3.96
